createdAt,value
2019-02-23T00:01:28.575Z,5.50
2019-02-23T00:03:56.901Z,5.40
2019-02-23T00:06:29.923Z,5.40
2019-02-23T00:08:54.317Z,5.30
2019-02-23T00:11:22.745Z,5.20
2019-02-23T00:13:51.087Z,5.20
2019-02-23T00:16:19.351Z,5.10
2019-02-23T00:18:47.618Z,5.10
2019-02-23T00:21:15.894Z,5.00
2019-02-23T00:23:44.159Z,5.00
2019-02-23T00:26:12.448Z,4.90
2019-02-23T00:28:40.716Z,4.90
2019-02-23T00:31:09.003Z,4.80
2019-02-23T00:33:37.279Z,4.80
2019-02-23T00:36:05.559Z,4.70
2019-02-23T00:38:33.825Z,4.70
2019-02-23T00:41:02.206Z,4.60
2019-02-23T00:43:30.477Z,4.60
2019-02-23T00:45:58.754Z,4.50
2019-02-23T00:48:27.021Z,4.30
2019-02-23T00:50:55.295Z,4.30
2019-02-23T00:53:23.643Z,4.20
2019-02-23T00:55:52.774Z,4.10
2019-02-23T00:58:21.046Z,4.10
2019-02-23T01:00:49.321Z,4.10
2019-02-23T01:03:17.636Z,4.10
2019-02-23T01:05:46.011Z,4.10
2019-02-23T01:08:14.277Z,4.10
2019-02-23T01:10:42.639Z,4.00
2019-02-23T01:13:10.901Z,3.80
2019-02-23T01:15:39.172Z,3.80
2019-02-23T01:18:07.458Z,3.70
2019-02-23T01:20:35.731Z,3.70
2019-02-23T01:23:04.007Z,3.80
2019-02-23T01:25:32.383Z,3.90
2019-02-23T01:28:00.656Z,3.80
2019-02-23T01:30:28.939Z,3.80
2019-02-23T01:32:57.261Z,3.80
2019-02-23T01:35:25.504Z,3.70
2019-02-23T01:37:53.875Z,3.60
2019-02-23T01:40:22.135Z,3.50
2019-02-23T01:42:50.407Z,3.50
2019-02-23T01:45:18.700Z,3.40
2019-02-23T01:47:46.967Z,3.30
2019-02-23T01:50:15.258Z,3.40
2019-02-23T01:52:43.635Z,3.30
2019-02-23T01:55:11.912Z,3.30
2019-02-23T01:57:40.195Z,3.20
2019-02-23T02:00:09.395Z,3.20
2019-02-23T02:02:37.668Z,3.20
2019-02-23T02:05:05.947Z,3.10
2019-02-23T02:07:34.299Z,3.00
2019-02-23T02:10:02.582Z,3.00
2019-02-23T02:12:30.850Z,3.00
2019-02-23T02:14:59.111Z,3.00
2019-02-23T02:17:27.389Z,2.90
2019-02-23T02:19:55.674Z,2.80
2019-02-23T02:22:24.047Z,2.80
2019-02-23T02:24:52.294Z,2.80
2019-02-23T02:27:21.415Z,2.80
2019-02-23T02:29:49.679Z,2.80
2019-02-23T02:32:17.974Z,2.70
2019-02-23T02:34:46.215Z,2.40
2019-02-23T02:37:15.236Z,2.20
2019-02-23T02:39:43.617Z,2.20
2019-02-23T02:42:11.893Z,2.40
2019-02-23T02:44:40.161Z,2.40
2019-02-23T02:47:08.432Z,2.30
2019-02-23T02:49:36.759Z,2.30
2019-02-23T02:52:05.924Z,2.50
2019-02-23T02:54:34.305Z,2.40
2019-02-23T02:57:02.595Z,2.50
2019-02-23T02:59:30.860Z,2.50
2019-02-23T03:01:59.226Z,2.50
2019-02-23T03:04:27.482Z,2.50
2019-02-23T03:06:55.766Z,2.40
2019-02-23T03:09:24.043Z,2.50
2019-02-23T03:11:52.320Z,2.50
2019-02-23T03:14:20.595Z,2.30
2019-02-23T03:16:48.864Z,2.30
2019-02-23T03:19:17.259Z,2.30
2019-02-23T03:21:45.599Z,2.40
2019-02-23T03:24:13.887Z,2.30
2019-02-23T03:26:42.163Z,2.30
2019-02-23T03:29:10.447Z,2.20
2019-02-23T03:31:38.728Z,2.10
2019-02-23T03:34:07.108Z,2.00
2019-02-23T03:36:35.501Z,2.10
2019-02-23T03:39:03.773Z,2.00
2019-02-23T03:41:32.113Z,1.80
2019-02-23T03:44:00.371Z,1.70
2019-02-23T03:46:28.654Z,1.60
2019-02-23T03:48:57.018Z,1.60
2019-02-23T03:51:25.347Z,1.60
2019-02-23T03:53:53.734Z,1.60
2019-02-23T03:56:21.995Z,1.60
2019-02-23T03:58:50.271Z,1.70
2019-02-23T04:01:18.655Z,1.80
2019-02-23T04:03:47.026Z,1.80
2019-02-23T04:06:15.311Z,1.60
2019-02-23T04:08:43.731Z,1.60
2019-02-23T04:11:12.773Z,1.70
2019-02-23T04:13:41.093Z,1.60
2019-02-23T04:16:10.145Z,1.40
2019-02-23T04:18:38.440Z,1.40
2019-02-23T04:21:06.796Z,1.20
2019-02-23T04:23:35.155Z,1.30
2019-02-23T04:26:03.448Z,1.50
2019-02-23T04:28:31.842Z,1.50
2019-02-23T04:31:00.205Z,1.50
2019-02-23T04:33:28.502Z,1.40
2019-02-23T04:35:56.758Z,1.50
2019-02-23T04:38:25.014Z,1.50
2019-02-23T04:40:53.304Z,1.50
2019-02-23T04:43:21.609Z,1.30
2019-02-23T04:45:49.975Z,1.40
2019-02-23T04:48:18.341Z,1.50
2019-02-23T04:50:46.712Z,1.40
2019-02-23T04:53:15.087Z,1.40
2019-02-23T04:55:43.343Z,1.20
2019-02-23T04:58:11.632Z,1.20
2019-02-23T05:00:40.027Z,1.20
2019-02-23T05:03:08.402Z,1.20
2019-02-23T05:05:36.691Z,1.30
2019-02-23T05:08:05.185Z,1.20
2019-02-23T05:10:33.423Z,1.00
2019-02-23T05:13:01.788Z,0.90
2019-02-23T05:15:30.092Z,1.10
2019-02-23T05:17:58.455Z,1.00
2019-02-23T05:20:26.748Z,1.00
2019-02-23T05:22:55.111Z,1.00
2019-02-23T05:25:23.406Z,1.00
2019-02-23T05:27:51.692Z,0.90
2019-02-23T05:30:19.988Z,0.90
2019-02-23T05:32:48.319Z,0.80
2019-02-23T05:35:16.691Z,0.70
2019-02-23T05:37:44.995Z,0.70
2019-02-23T05:40:13.291Z,0.60
2019-02-23T05:42:41.547Z,0.60
2019-02-23T05:45:09.859Z,0.60
2019-02-23T05:47:38.178Z,0.30
2019-02-23T05:50:06.549Z,0.40
2019-02-23T05:52:34.868Z,0.30
2019-02-23T05:55:04.018Z,0.20
2019-02-23T05:57:32.299Z,0.20
2019-02-23T06:00:00.562Z,0.00
2019-02-23T06:02:28.955Z,0.00
2019-02-23T06:04:57.279Z,0.00
2019-02-23T06:07:25.598Z,0.10
2019-02-23T06:09:53.899Z,0.20
2019-02-23T06:12:22.171Z,0.30
2019-02-23T06:14:50.545Z,0.20
2019-02-23T06:17:18.868Z,0.20
2019-02-23T06:19:47.926Z,0.30
2019-02-23T06:22:16.211Z,0.30
2019-02-23T06:24:45.376Z,0.40
2019-02-23T06:27:13.755Z,0.40
2019-02-23T06:29:42.175Z,0.40
2019-02-23T06:32:10.510Z,0.40
2019-02-23T06:34:38.807Z,0.60
2019-02-23T06:37:07.088Z,0.70
2019-02-23T06:39:36.154Z,0.70
2019-02-23T06:42:04.454Z,0.70
2019-02-23T06:44:32.799Z,0.70
2019-02-23T06:47:01.057Z,0.60
2019-02-23T06:49:29.323Z,0.50
2019-02-23T06:52:04.180Z,0.70
2019-02-23T06:54:25.983Z,0.70
2019-02-23T06:56:54.287Z,0.60
2019-02-23T06:59:22.564Z,0.40
2019-02-23T07:01:50.851Z,0.40
2019-02-23T07:04:19.207Z,0.50
2019-02-23T07:06:47.510Z,0.50
2019-02-23T07:09:15.814Z,0.50
2019-02-23T07:11:44.880Z,0.50
2019-02-23T07:14:13.177Z,0.50
2019-02-23T07:16:42.238Z,0.70
2019-02-23T07:19:10.541Z,0.70
2019-02-23T07:21:38.822Z,0.40
2019-02-23T07:24:07.971Z,0.40
2019-02-23T07:26:36.259Z,0.30
2019-02-23T07:29:04.534Z,0.40
2019-02-23T07:31:32.826Z,0.50
2019-02-23T07:34:01.187Z,0.50
2019-02-23T07:36:29.562Z,0.70
2019-02-23T07:38:57.863Z,0.60
2019-02-23T07:41:26.154Z,0.80
2019-02-23T07:43:55.208Z,0.70
2019-02-23T07:46:23.506Z,0.70
2019-02-23T07:48:51.848Z,0.80
2019-02-23T07:51:20.131Z,0.80
2019-02-23T07:53:48.373Z,0.80
2019-02-23T07:56:16.718Z,0.90
2019-02-23T07:58:45.775Z,1.00
2019-02-23T08:01:14.079Z,0.90
2019-02-23T08:03:42.354Z,1.00
2019-02-23T08:06:10.691Z,1.00
2019-02-23T08:08:38.999Z,1.20
2019-02-23T08:11:07.279Z,1.30
2019-02-23T08:13:35.539Z,1.30
2019-02-23T08:16:03.837Z,1.50
2019-02-23T08:18:32.082Z,2.00
2019-02-23T08:21:00.328Z,2.40
2019-02-23T08:23:29.351Z,2.60
2019-02-23T08:25:57.717Z,2.50
2019-02-23T08:28:25.954Z,2.70
2019-02-23T08:30:54.216Z,2.80
2019-02-23T08:33:23.967Z,2.90
2019-02-23T08:35:52.243Z,2.90
2019-02-23T08:38:20.523Z,2.90
2019-02-23T08:40:48.827Z,3.10
2019-02-23T08:43:17.095Z,3.50
2019-02-23T08:45:45.363Z,3.80
2019-02-23T08:48:13.643Z,3.90
2019-02-23T08:50:41.904Z,4.20
2019-02-23T08:53:10.179Z,4.30
2019-02-23T08:55:38.667Z,4.80
2019-02-23T08:58:07.038Z,4.90
2019-02-23T09:00:35.287Z,4.90
2019-02-23T09:03:03.550Z,5.10
2019-02-23T09:05:31.914Z,4.90
2019-02-23T09:08:00.134Z,5.20
2019-02-23T09:10:28.375Z,5.00
2019-02-23T09:12:56.660Z,5.40
2019-02-23T09:15:24.918Z,5.50
2019-02-23T09:17:54.063Z,5.00
2019-02-23T09:20:29.160Z,4.90
2019-02-23T09:22:59.722Z,5.70
2019-02-23T09:25:19.934Z,5.70
2019-02-23T09:27:48.278Z,6.50
2019-02-23T09:30:16.543Z,7.20
2019-02-23T09:32:44.914Z,7.10
2019-02-23T09:35:13.197Z,6.10
2019-02-23T09:37:41.488Z,5.60
2019-02-23T09:40:10.614Z,5.20
2019-02-23T09:42:38.959Z,5.40
2019-02-23T09:45:07.284Z,5.60
2019-02-23T09:47:35.535Z,5.80
2019-02-23T09:50:03.961Z,5.70
2019-02-23T09:52:32.267Z,6.00
2019-02-23T09:55:00.651Z,5.80
2019-02-23T09:57:29.143Z,5.90
2019-02-23T09:59:57.411Z,6.20
2019-02-23T10:02:25.731Z,6.90
2019-02-23T10:04:54.064Z,7.10
2019-02-23T10:07:22.441Z,7.60
2019-02-23T10:09:50.815Z,7.70
2019-02-23T10:12:19.104Z,7.30
2019-02-23T10:14:47.447Z,7.10
2019-02-23T10:17:15.774Z,7.10
2019-02-23T10:19:44.122Z,7.10
2019-02-23T10:22:12.494Z,7.40
2019-02-23T10:24:40.770Z,7.30
2019-02-23T10:27:09.048Z,7.70
2019-02-23T10:29:37.307Z,7.60
2019-02-23T10:32:05.577Z,7.60
2019-02-23T10:34:33.851Z,7.80
2019-02-23T10:37:02.148Z,7.80
2019-02-23T10:39:30.414Z,8.10
2019-02-23T10:41:58.700Z,8.50
2019-02-23T10:44:27.027Z,9.00
2019-02-23T10:46:56.164Z,8.90
2019-02-23T10:49:24.450Z,8.90
2019-02-23T10:51:52.817Z,8.70
2019-02-23T10:54:21.091Z,9.00
2019-02-23T10:56:49.512Z,8.70
2019-02-23T10:59:19.307Z,8.20
2019-02-23T11:01:47.574Z,8.20
2019-02-23T11:04:15.846Z,8.20
2019-02-23T11:06:44.127Z,8.20
2019-02-23T11:09:12.403Z,8.30
2019-02-23T11:11:40.893Z,8.30
2019-02-23T11:14:09.235Z,8.40
2019-02-23T11:16:37.534Z,8.60
2019-02-23T11:19:05.810Z,8.40
2019-02-23T11:21:34.739Z,8.50
2019-02-23T11:24:03.904Z,8.60
2019-02-23T11:26:32.254Z,8.60
2019-02-23T11:29:00.530Z,8.70
2019-02-23T11:31:28.921Z,8.80
2019-02-23T11:33:57.191Z,8.80
2019-02-23T11:36:25.667Z,8.60
2019-02-23T11:38:53.971Z,8.40
2019-02-23T11:41:22.415Z,8.60
2019-02-23T11:43:50.718Z,8.90
2019-02-23T11:46:18.983Z,8.70
2019-02-23T11:48:47.268Z,8.80
2019-02-23T11:51:15.523Z,8.80
2019-02-23T11:53:54.366Z,9.10
2019-02-23T11:56:12.123Z,9.20
2019-02-23T11:58:40.572Z,9.40
2019-02-23T12:01:08.853Z,9.40
2019-02-23T12:03:37.115Z,9.40
2019-02-23T12:06:05.398Z,9.40
2019-02-23T12:08:33.755Z,9.60
2019-02-23T12:11:02.199Z,9.60
2019-02-23T12:13:30.429Z,9.70
2019-02-23T12:15:58.735Z,9.60
2019-02-23T12:18:27.758Z,9.20
2019-02-23T12:20:56.032Z,9.20
2019-02-23T12:23:24.338Z,9.20
2019-02-23T12:25:52.606Z,9.20
2019-02-23T12:28:20.875Z,8.90
2019-02-23T12:30:49.255Z,9.10
2019-02-23T12:33:17.528Z,9.20
2019-02-23T12:35:45.843Z,9.00
2019-02-23T12:38:14.179Z,8.50
2019-02-23T12:40:42.467Z,8.30
2019-02-23T12:43:10.848Z,8.50
2019-02-23T12:45:39.230Z,8.50
2019-02-23T12:48:07.482Z,9.00
2019-02-23T12:50:35.786Z,8.70
2019-02-23T12:53:04.243Z,8.90
2019-02-23T12:55:32.520Z,8.80
2019-02-23T12:58:00.799Z,8.60
2019-02-23T13:00:29.065Z,8.60
2019-02-23T13:02:57.330Z,9.00
2019-02-23T13:05:25.640Z,8.90
2019-02-23T13:07:53.944Z,8.40
2019-02-23T13:10:22.196Z,8.60
2019-02-23T13:12:55.162Z,9.00
2019-02-23T13:15:24.969Z,9.10
2019-02-23T13:17:55.835Z,8.40
2019-02-23T13:23:44.065Z,8.10
2019-02-23T13:29:24.519Z,7.90
2019-02-23T13:32:01.530Z,7.90
2019-02-23T13:34:33.482Z,7.80
2019-02-23T13:40:06.486Z,7.50
2019-02-23T13:42:36.407Z,7.50
2019-02-23T13:45:12.467Z,7.40
2019-02-23T13:47:49.346Z,7.30
2019-02-23T13:50:35.260Z,7.30
2019-02-23T13:56:16.662Z,7.30
2019-02-23T13:58:50.543Z,7.30
2019-02-23T14:01:22.729Z,7.10
2019-02-23T14:03:57.002Z,6.90
2019-02-23T14:06:26.942Z,7.10
2019-02-23T14:09:07.303Z,7.10
2019-02-23T14:11:45.512Z,7.00
2019-02-23T14:14:30.461Z,6.90
2019-02-23T14:17:04.601Z,6.80
2019-02-23T14:22:55.195Z,6.40
2019-02-23T14:25:33.112Z,6.30
2019-02-23T14:28:25.915Z,6.40
2019-02-23T14:30:58.835Z,6.40
2019-02-23T14:33:48.923Z,6.50
2019-02-23T14:36:19.877Z,6.50
2019-02-23T14:41:56.726Z,6.60
2019-02-23T14:44:27.831Z,6.50
2019-02-23T14:47:12.876Z,6.50
2019-02-23T14:53:05.653Z,6.60
2019-02-23T14:55:54.595Z,6.40
2019-02-23T14:58:45.371Z,6.40
2019-02-23T15:01:20.362Z,6.40
2019-02-23T15:04:08.152Z,6.40
2019-02-23T15:06:43.093Z,6.30
2019-02-23T15:09:20.941Z,6.00
2019-02-23T15:14:57.662Z,5.90
2019-02-23T15:17:33.639Z,6.00
2019-02-23T15:26:25.154Z,6.00
2019-02-23T15:29:04.951Z,5.90
2019-02-23T15:31:38.730Z,5.90
2019-02-23T15:34:12.677Z,5.90
2019-02-23T15:40:01.846Z,5.80
2019-02-23T15:42:38.951Z,5.70
2019-02-23T15:45:22.611Z,5.70
2019-02-23T15:48:06.500Z,5.70
2019-02-23T15:50:34.802Z,5.70
2019-02-23T15:53:03.082Z,5.50
2019-02-23T15:55:31.426Z,5.50
2019-02-23T15:57:59.703Z,5.40
2019-02-23T16:00:28.104Z,5.30
2019-02-23T16:02:56.256Z,5.40
2019-02-23T16:05:24.543Z,5.30
2019-02-23T16:07:52.904Z,5.20
2019-02-23T16:10:21.162Z,5.20
2019-02-23T16:12:50.176Z,5.20
2019-02-23T16:15:18.439Z,5.20
2019-02-23T16:17:46.824Z,5.10
2019-02-23T16:20:15.086Z,5.10
2019-02-23T16:22:43.665Z,5.10
2019-02-23T16:25:11.827Z,5.10
2019-02-23T16:27:40.846Z,5.00
2019-02-23T16:30:09.122Z,4.90
2019-02-23T16:32:37.420Z,5.00
2019-02-23T16:35:05.721Z,4.90
2019-02-23T16:37:34.003Z,4.90
2019-02-23T16:40:03.123Z,4.90
2019-02-23T16:42:31.527Z,4.80
2019-02-23T16:44:59.795Z,4.80
2019-02-23T16:47:28.176Z,4.90
2019-02-23T16:49:56.444Z,4.80
2019-02-23T16:52:24.779Z,4.70
2019-02-23T16:54:53.798Z,4.90
2019-02-23T16:57:22.078Z,4.80
2019-02-23T16:59:50.980Z,4.80
2019-02-23T17:02:19.271Z,4.70
2019-02-23T17:04:53.671Z,4.70
2019-02-23T17:07:16.127Z,4.70
2019-02-23T17:09:44.396Z,4.70
2019-02-23T17:12:12.707Z,4.60
2019-02-23T17:14:40.976Z,4.50
2019-02-23T17:17:09.288Z,4.30
2019-02-23T17:19:37.563Z,4.30
2019-02-23T17:22:05.912Z,4.10
2019-02-23T17:24:34.134Z,4.10
2019-02-23T17:27:02.403Z,4.10
2019-02-23T17:29:30.701Z,4.00
2019-02-23T17:31:58.987Z,4.10
2019-02-23T17:34:27.274Z,4.00
2019-02-23T17:36:55.572Z,3.90
2019-02-23T17:39:24.615Z,3.80
2019-02-23T17:41:52.872Z,3.80
2019-02-23T17:44:21.236Z,3.70
2019-02-23T17:46:49.519Z,3.60
2019-02-23T17:49:18.848Z,3.50
2019-02-23T17:51:47.120Z,3.50
2019-02-23T17:54:15.415Z,3.50
2019-02-23T17:56:43.819Z,3.50
2019-02-23T17:59:12.062Z,3.50
2019-02-23T18:01:40.302Z,3.50
2019-02-23T18:04:09.351Z,3.40
2019-02-23T18:06:37.613Z,3.40
2019-02-23T18:09:05.915Z,3.40
2019-02-23T18:11:34.240Z,3.30
2019-02-23T18:14:02.490Z,3.30
2019-02-23T18:16:31.496Z,3.40
2019-02-23T18:18:59.786Z,3.40
2019-02-23T18:21:28.139Z,3.20
2019-02-23T18:23:56.407Z,3.10
2019-02-23T18:26:24.713Z,3.10
2019-02-23T18:28:53.007Z,3.20
2019-02-23T18:31:21.371Z,3.10
2019-02-23T18:33:49.635Z,3.10
2019-02-23T18:36:17.905Z,3.10
2019-02-23T18:38:46.208Z,3.00
2019-02-23T18:41:14.580Z,2.90
2019-02-23T18:43:42.867Z,2.90
2019-02-23T18:46:11.193Z,2.90
2019-02-23T18:48:39.945Z,2.60
2019-02-23T18:51:08.316Z,2.50
2019-02-23T18:53:37.489Z,2.50
2019-02-23T18:56:05.766Z,2.50
2019-02-23T18:58:34.043Z,2.50
2019-02-23T19:01:02.403Z,2.50
2019-02-23T19:03:30.703Z,2.50
2019-02-23T19:05:58.997Z,2.30
2019-02-23T19:08:28.770Z,2.30
2019-02-23T19:10:57.047Z,2.30
2019-02-23T19:13:25.315Z,2.30
2019-02-23T19:15:53.710Z,2.20
2019-02-23T19:18:21.986Z,2.30
2019-02-23T19:20:50.266Z,2.20
2019-02-23T19:23:19.119Z,2.10
2019-02-23T19:25:47.400Z,2.10
2019-02-23T19:28:15.693Z,2.20
2019-02-23T19:30:43.987Z,2.20
2019-02-23T19:33:13.766Z,2.00
2019-02-23T19:35:42.099Z,2.00
2019-02-23T19:38:10.293Z,2.00
2019-02-23T19:40:39.314Z,2.00
2019-02-23T19:43:07.579Z,2.00
2019-02-23T19:45:35.867Z,2.10
2019-02-23T19:48:04.771Z,2.20
2019-02-23T19:50:33.964Z,2.10
2019-02-23T19:53:02.235Z,2.20
2019-02-23T19:55:30.518Z,2.10
2019-02-23T19:57:58.779Z,2.00
2019-02-23T20:00:27.111Z,1.90
2019-02-23T20:02:56.131Z,2.10
2019-02-23T20:05:24.435Z,2.10
2019-02-23T20:07:52.826Z,2.10
2019-02-23T20:10:21.185Z,2.10
2019-02-23T20:12:49.454Z,2.10
2019-02-23T20:15:18.104Z,2.10
2019-02-23T20:17:46.371Z,2.20
2019-02-23T20:20:15.419Z,2.10
2019-02-23T20:22:43.672Z,2.10
2019-02-23T20:25:11.971Z,2.00
2019-02-23T20:27:40.239Z,1.90
2019-02-23T20:30:09.337Z,2.10
2019-02-23T20:32:37.607Z,2.10
2019-02-23T20:35:05.982Z,2.10
2019-02-23T20:37:34.263Z,2.10
2019-02-23T20:40:02.535Z,2.10
2019-02-23T20:42:30.807Z,2.00
2019-02-23T20:44:59.098Z,1.80
2019-02-23T20:47:27.381Z,1.80
2019-02-23T20:49:55.693Z,1.80
2019-02-23T20:52:24.843Z,1.40
2019-02-23T20:54:53.222Z,1.40
2019-02-23T20:57:21.587Z,1.50
2019-02-23T20:59:49.860Z,1.50
2019-02-23T21:02:18.715Z,1.50
2019-02-23T21:04:47.127Z,1.50
2019-02-23T21:07:15.408Z,1.40
2019-02-23T21:09:43.695Z,1.50
2019-02-23T21:12:11.986Z,1.60
2019-02-23T21:14:40.334Z,1.70
2019-02-23T21:17:09.429Z,1.70
2019-02-23T21:19:37.707Z,1.70
2019-02-23T21:22:05.981Z,1.50
2019-02-23T21:24:34.266Z,1.50
2019-02-23T21:27:02.577Z,1.50
2019-02-23T21:29:30.842Z,1.40
2019-02-23T21:32:00.707Z,1.30
2019-02-23T21:34:28.999Z,1.30
2019-02-23T21:36:57.376Z,1.40
2019-02-23T21:39:25.659Z,1.40
2019-02-23T21:41:54.023Z,1.50
2019-02-23T21:44:22.308Z,1.50
2019-02-23T21:46:50.679Z,1.40
2019-02-23T21:49:18.942Z,1.30
2019-02-23T21:51:47.238Z,1.40
2019-02-23T21:54:15.569Z,1.30
2019-02-23T21:56:43.780Z,1.40
2019-02-23T21:59:12.076Z,1.30
2019-02-23T22:01:40.540Z,1.30
2019-02-23T22:04:08.807Z,1.30
2019-02-23T22:06:37.183Z,1.30
2019-02-23T22:09:05.469Z,1.40
2019-02-23T22:11:33.730Z,1.30
2019-02-23T22:14:01.989Z,1.30
2019-02-23T22:16:30.395Z,1.10
2019-02-23T22:18:58.822Z,0.80
2019-02-23T22:21:27.080Z,0.90
2019-02-23T22:23:55.427Z,0.90
2019-02-23T22:26:23.795Z,1.00
2019-02-23T22:28:52.048Z,1.00
2019-02-23T22:31:21.150Z,1.10
2019-02-23T22:33:50.167Z,1.20
2019-02-23T22:36:18.440Z,1.20
2019-02-23T22:38:46.811Z,1.20
2019-02-23T22:41:15.083Z,1.10
2019-02-23T22:43:43.392Z,1.00
2019-02-23T22:46:11.746Z,0.90
2019-02-23T22:48:40.115Z,0.80
2019-02-23T22:51:08.390Z,0.90
2019-02-23T22:53:36.762Z,0.80
2019-02-23T22:56:05.039Z,0.60
2019-02-23T22:58:33.299Z,0.70
2019-02-23T23:01:01.572Z,0.70
2019-02-23T23:03:29.858Z,0.70
2019-02-23T23:05:58.129Z,0.80
2019-02-23T23:08:26.415Z,0.70
2019-02-23T23:10:54.836Z,0.70
2019-02-23T23:13:23.067Z,0.80
2019-02-23T23:15:51.335Z,0.90
2019-02-23T23:18:19.620Z,0.70
2019-02-23T23:20:47.866Z,0.70
2019-02-23T23:23:16.974Z,0.70
2019-02-23T23:25:45.202Z,0.70
2019-02-23T23:28:13.471Z,0.60
2019-02-23T23:30:41.834Z,0.60
2019-02-23T23:33:10.115Z,0.60
2019-02-23T23:35:38.410Z,0.70
2019-02-23T23:38:06.752Z,0.80
2019-02-23T23:40:35.024Z,0.70
2019-02-23T23:43:03.302Z,0.50
2019-02-23T23:45:31.538Z,0.50
2019-02-23T23:47:59.795Z,0.50
2019-02-23T23:50:28.154Z,0.40
2019-02-23T23:52:56.603Z,0.40
2019-02-23T23:55:24.895Z,0.40
2019-02-23T23:57:58.317Z,0.50
